Time;durP1;ratioP1;P1;durP2;ratioP2;P2;SDS_P1;SDS_P2;PMS_P1;PMS_P2;Temp;Humidity;BMP_temperature;BMP_pressure;BME280_temperature;BME280_humidity;BME280_pressure;Samples;Min_cycle;Max_cycle;Signal;HPM_P1;HPM_P2
2020/12/21 06:58:35;;;;;;;89.22;27.80;;;;;;;-0.66;98.60;103029.87;1852746;77;22823;-83
2020/12/21 07:01:04;;;;;;;65.60;27.07;;;;;;;-0.66;98.71;103033.70;1824982;78;21003;-83
2020/12/21 07:03:33;;;;;;;65.00;27.50;;;;;;;-0.61;98.93;103033.34;1825240;78;21203;-83
2020/12/21 07:06:00;;;;;;;74.87;30.95;;;;;;;-0.52;99.25;103032.67;1825346;78;21235;-83
2020/12/21 07:08:28;;;;;;;73.20;31.85;;;;;;;-0.43;99.51;103034.51;1825681;78;20985;-84
2020/12/21 07:10:57;;;;;;;87.75;32.83;;;;;;;-0.37;99.60;103033.33;1825269;78;21116;-84
2020/12/21 07:13:25;;;;;;;81.28;35.60;;;;;;;-0.28;99.77;103034.75;1837177;77;21054;-83
2020/12/21 07:18:34;;;;;;;72.05;33.73;;;;;;;-0.04;100.00;103035.16;1955362;72;22082;-83
2020/12/21 07:21:10;;;;;;;71.15;33.40;;;;;;;0.03;100.00;103036.11;1920410;73;20901;-83
2020/12/21 07:23:40;;;;;;;178.23;38.60;;;;;;;0.15;100.00;103039.70;1900242;73;21336;-83
2020/12/21 07:26:09;;;;;;;94.10;35.00;;;;;;;0.26;100.00;103039.42;1884351;75;21570;-83
2020/12/21 07:28:37;;;;;;;109.87;36.38;;;;;;;0.35;100.00;103033.61;1916709;73;21035;-83
2020/12/21 07:31:21;;;;;;;77.20;34.45;;;;;;;0.45;100.00;103035.02;1920205;74;20980;-83
2020/12/21 07:33:58;;;;;;;80.65;32.93;;;;;;;0.57;100.00;103032.20;1920463;73;20881;-83
2020/12/21 07:36:37;;;;;;;72.50;34.23;;;;;;;0.73;100.00;103027.72;1920066;73;21165;-83
2020/12/21 07:39:10;;;;;;;65.37;30.08;;;;;;;0.87;100.00;103028.72;1920087;74;20916;-82
2020/12/21 07:41:47;;;;;;;74.82;30.77;;;;;;;1.02;100.00;103026.36;1917604;73;20945;-83
2020/12/21 07:44:31;;;;;;;57.45;27.35;;;;;;;1.14;100.00;103025.63;1912633;73;21146;-82
2020/12/21 07:47:07;;;;;;;63.78;28.05;;;;;;;1.22;99.85;103022.29;1884741;74;21598;-82
2020/12/21 07:49:36;;;;;;;76.35;30.60;;;;;;;1.34;99.73;103029.25;1884668;76;21181;-82
2020/12/21 07:52:08;;;;;;;62.70;30.88;;;;;;;1.43;99.64;103028.05;1884645;75;20873;-83
2020/12/21 07:54:43;;;;;;;76.70;29.72;;;;;;;1.53;99.62;103031.13;1884477;76;21443;-81
2020/12/21 07:57:14;;;;;;;64.85;29.45;;;;;;;1.63;99.54;103023.95;1884300;74;21153;-83
2020/12/21 07:59:55;;;;;;;63.28;28.92;;;;;;;1.71;99.33;103018.91;1884328;74;21059;-82
2020/12/21 08:02:26;;;;;;;66.65;30.30;;;;;;;1.81;99.20;103027.09;1880150;74;21103;-82
2020/12/21 08:04:54;;;;;;;80.35;31.45;;;;;;;1.88;98.99;103016.89;1917130;74;20905;-83
2020/12/21 08:07:29;;;;;;;66.40;32.10;;;;;;;1.94;98.77;103014.83;1920184;74;20921;-83
2020/12/21 08:09:58;;;;;;;69.30;28.70;;;;;;;1.98;98.56;103016.53;1920843;73;21091;-83
2020/12/21 08:12:32;;;;;;;81.08;32.88;;;;;;;1.99;98.39;103017.84;1920492;74;21035;-81
2020/12/21 08:15:00;;;;;;;61.58;29.02;;;;;;;2.01;98.32;103014.02;1891420;74;21174;-83
2020/12/21 08:17:30;;;;;;;57.58;27.90;;;;;;;2.03;98.33;103014.88;1883361;74;21054;-83
2020/12/21 08:19:59;;;;;;;52.30;26.45;;;;;;;2.06;98.38;103018.32;1882376;76;21035;-82
2020/12/21 08:22:29;;;;;;;52.23;26.07;;;;;;;2.11;98.44;103024.31;1882170;74;20976;-81
2020/12/21 08:25:11;;;;;;;53.55;27.00;;;;;;;2.15;98.43;103018.80;1902785;74;21131;-82
2020/12/21 08:27:50;;;;;;;50.83;25.08;;;;;;;2.18;98.42;103016.25;1906649;73;21343;-83
2020/12/21 08:30:21;;;;;;;45.98;24.05;;;;;;;2.24;98.57;103020.55;1888860;74;21008;-82
2020/12/21 08:32:55;;;;;;;58.58;23.35;;;;;;;2.31;98.59;103018.45;1891582;74;21122;-83
2020/12/21 08:35:26;;;;;;;44.73;25.37;;;;;;;2.37;98.53;103012.94;1898801;74;21478;-83
2020/12/21 08:38:07;;;;;;;38.67;21.07;;;;;;;2.46;98.28;103014.27;1917322;73;20885;-83
2020/12/21 08:40:35;;;;;;;48.95;28.30;;;;;;;2.55;98.03;103014.30;1917203;74;21346;-82
2020/12/21 08:43:03;;;;;;;45.60;25.57;;;;;;;2.65;97.71;103013.91;1916857;73;21012;-82
2020/12/21 08:45:31;;;;;;;44.20;22.62;;;;;;;2.73;97.33;103012.68;1889537;74;21083;-81
2020/12/21 08:47:59;;;;;;;42.60;21.35;;;;;;;2.84;96.87;103008.46;1859833;74;21645;-81
2020/12/21 08:50:27;;;;;;;38.98;21.35;;;;;;;2.92;96.30;103006.34;1860092;74;21133;-82
2020/12/21 08:52:54;;;;;;;39.65;21.33;;;;;;;3.04;95.43;103007.65;1917154;74;21178;-82
2020/12/21 08:55:22;;;;;;;37.65;21.17;;;;;;;3.12;94.55;103010.24;1917073;74;21067;-83
2020/12/21 08:57:50;;;;;;;33.80;20.23;;;;;;;3.22;94.08;103003.42;1909504;73;21202;-82
2020/12/21 09:00:19;;;;;;;29.27;18.27;;;;;;;3.32;92.71;103000.84;1884274;73;21111;-82
2020/12/21 09:02:47;;;;;;;27.62;17.65;;;;;;;3.41;91.83;102998.73;1899394;74;21047;-80
2020/12/21 09:05:15;;;;;;;31.65;18.15;;;;;;;3.48;91.30;102996.16;1900083;74;21247;-81
2020/12/21 09:07:43;;;;;;;29.55;17.02;;;;;;;3.58;90.73;102996.59;1917187;74;20905;-82
2020/12/21 09:10:12;;;;;;;29.98;17.62;;;;;;;3.70;90.25;102991.91;1890857;74;21595;-80
2020/12/21 09:12:40;;;;;;;29.42;17.25;;;;;;;3.81;89.64;102991.88;1899630;73;21094;-80
2020/12/21 09:15:08;;;;;;;27.75;16.55;;;;;;;3.92;88.29;102976.89;1914506;73;21185;-81
2020/12/21 09:17:37;;;;;;;27.80;15.75;;;;;;;4.04;87.71;102977.29;1917060;73;21389;-81
2020/12/21 09:20:08;;;;;;;25.05;15.32;;;;;;;4.18;86.25;102978.95;1917050;74;21185;-82
2020/12/21 09:22:36;;;;;;;30.05;15.80;;;;;;;4.42;85.30;102972.89;1883519;74;20920;-80
2020/12/21 09:25:03;;;;;;;21.35;14.73;;;;;;;4.69;83.81;102968.90;1906046;74;21161;-80
2020/12/21 09:27:32;;;;;;;26.48;16.70;;;;;;;5.01;82.33;102964.86;1883247;74;21028;-80
2020/12/21 09:30:00;;;;;;;33.13;16.70;;;;;;;5.47;81.65;102965.81;1894209;73;21236;-81
2020/12/21 09:32:30;;;;;;;33.42;17.02;;;;;;;5.94;79.51;102961.54;1823720;78;21126;-79
2020/12/21 09:34:58;;;;;;;25.90;15.40;;;;;;;6.35;77.49;102951.19;1823382;78;21573;-79
2020/12/21 09:37:28;;;;;;;29.20;16.20;;;;;;;6.81;75.62;102946.30;1823802;76;21794;-78
2020/12/21 09:39:57;;;;;;;38.55;15.93;;;;;;;7.35;72.38;102942.02;1835978;76;21833;-80
2020/12/21 09:42:26;;;;;;;30.50;19.00;;;;;;;7.76;70.25;102945.61;1859651;75;21232;-79
2020/12/21 09:44:56;;;;;;;26.52;18.65;;;;;;;8.24;68.41;102942.11;1859597;76;21047;-79
2020/12/21 09:47:23;;;;;;;25.02;16.48;;;;;;;8.82;66.94;102935.72;1808916;76;20969;-80
2020/12/21 09:49:51;;;;;;;20.45;14.80;;;;;;;9.27;64.56;102929.47;1786894;80;21126;-80
2020/12/21 09:52:19;;;;;;;25.50;15.98;;;;;;;9.57;62.00;102928.69;1810577;79;21132;-80
2020/12/21 09:54:47;;;;;;;22.00;16.30;;;;;;;9.90;61.48;102923.50;1816767;79;22161;-79
2020/12/21 09:57:15;;;;;;;29.87;15.48;;;;;;;10.43;60.07;102915.06;1829457;77;21515;-81
2020/12/21 09:59:43;;;;;;;20.88;15.05;;;;;;;10.90;58.73;102921.43;1850042;77;20907;-79
2020/12/21 10:02:15;;;;;;;25.95;15.95;;;;;;;11.32;56.30;102919.64;1850396;77;22090;-80
2020/12/21 10:04:43;;;;;;;23.90;15.58;;;;;;;11.49;55.53;102909.50;1844121;76;21437;-79
2020/12/21 10:07:11;;;;;;;22.67;15.03;;;;;;;11.66;54.63;102902.84;1816603;78;21796;-79
2020/12/21 10:09:39;;;;;;;25.40;14.80;;;;;;;11.91;54.22;102900.24;1829733;76;21229;-80
2020/12/21 10:12:07;;;;;;;20.90;14.73;;;;;;;12.13;52.50;102893.34;1841410;76;21186;-81
2020/12/21 10:14:35;;;;;;;27.93;14.30;;;;;;;12.25;52.66;102887.30;1846047;76;20962;-81
2020/12/21 10:17:03;;;;;;;20.57;14.58;;;;;;;12.23;52.15;102882.14;1829943;77;21132;-80
2020/12/21 10:19:30;;;;;;;26.20;14.98;;;;;;;12.13;51.91;102881.64;1836042;77;21367;-80
2020/12/21 10:22:00;;;;;;;21.40;15.78;;;;;;;11.94;51.70;102877.16;1820160;77;21100;-80
2020/12/21 10:24:28;;;;;;;23.98;15.40;;;;;;;11.64;52.03;102883.84;1834058;77;21556;-81
2020/12/21 10:26:57;;;;;;;26.42;16.73;;;;;;;11.35;53.50;102884.45;1817155;78;21112;-78
2020/12/21 10:29:25;;;;;;;29.15;17.92;;;;;;;11.22;54.14;102885.31;1817662;78;20934;-78
2020/12/21 10:31:53;;;;;;;27.37;19.52;;;;;;;11.06;54.46;102884.97;1817275;79;21189;-79
2020/12/21 10:34:20;;;;;;;28.40;19.73;;;;;;;10.86;54.61;102883.90;1819644;77;21005;-78
2020/12/21 10:36:50;;;;;;;32.10;20.08;;;;;;;10.61;56.25;102889.88;1817422;79;21025;-79
2020/12/21 10:39:19;;;;;;;25.55;18.00;;;;;;;10.45;56.91;102888.64;1817160;79;21179;-80
2020/12/21 10:41:48;;;;;;;31.60;19.45;;;;;;;10.33;57.31;102881.66;1817232;78;21556;-80
2020/12/21 10:44:18;;;;;;;31.80;19.93;;;;;;;10.21;57.54;102876.84;1819908;77;22191;-81
2020/12/21 10:46:46;;;;;;;33.40;21.15;;;;;;;10.05;58.69;102880.30;1816134;79;21884;-80
2020/12/21 10:49:14;;;;;;;28.23;18.98;;;;;;;9.93;59.32;102878.02;1816433;78;21140;-80
2020/12/21 10:51:42;;;;;;;31.68;19.95;;;;;;;9.81;59.35;102884.86;1817293;78;21579;-79
2020/12/21 10:54:10;;;;;;;30.48;18.75;;;;;;;9.60;59.91;102879.82;1817314;78;20958;-80
2020/12/21 10:56:38;;;;;;;33.48;18.57;;;;;;;9.41;60.59;102885.91;1816062;79;21637;-84
2020/12/21 10:59:06;;;;;;;31.48;19.73;;;;;;;9.25;61.48;102879.44;1816857;78;20977;-80
2020/12/21 11:01:34;;;;;;;34.95;20.77;;;;;;;9.12;61.93;102882.37;1817135;79;20898;-84
2020/12/21 11:04:02;;;;;;;32.90;20.40;;;;;;;8.95;62.64;102875.86;1816872;79;20906;-80
2020/12/21 11:06:30;;;;;;;35.73;20.40;;;;;;;8.83;63.43;102880.48;1816959;78;21131;-80
2020/12/21 11:08:59;;;;;;;28.83;19.00;;;;;;;8.68;63.69;102873.90;1845047;77;21255;-80
2020/12/21 11:11:28;;;;;;;37.15;20.95;;;;;;;8.52;64.03;102870.42;1850665;77;21718;-81
2020/12/21 11:16:49;;;;;;;38.50;21.97;;;;;;;8.40;65.60;102858.59;1948221;73;22971;-83
2020/12/21 11:19:18;;;;;;;31.00;20.75;;;;;;;8.36;65.51;102862.16;1896667;74;21040;-84
2020/12/21 11:21:46;;;;;;;29.95;19.73;;;;;;;8.36;65.59;102855.69;1921375;73;21176;-82
2020/12/21 11:24:14;;;;;;;31.00;20.08;;;;;;;8.36;65.53;102853.92;1912892;74;21093;-82
2020/12/21 11:26:43;;;;;;;30.97;20.88;;;;;;;8.24;65.54;102851.58;1905152;74;21044;-81
2020/12/21 11:29:12;;;;;;;35.17;19.30;;;;;;;8.14;65.79;102847.47;1899022;74;21046;-81
2020/12/21 11:31:42;;;;;;;32.10;18.23;;;;;;;8.12;66.05;102842.79;1915307;73;21012;-81
2020/12/21 11:34:10;;;;;;;34.13;19.40;;;;;;;8.14;65.86;102841.45;1896732;75;21999;-81
2020/12/21 11:36:43;;;;;;;39.08;19.98;;;;;;;8.23;66.21;102843.86;1896710;75;20910;-81
2020/12/21 11:39:12;;;;;;;51.10;21.37;;;;;;;8.35;66.10;102847.06;1896695;75;21681;-82
2020/12/21 11:41:41;;;;;;;37.53;20.12;;;;;;;8.42;65.65;102843.44;1896690;75;21456;-82
2020/12/21 11:44:09;;;;;;;32.23;18.62;;;;;;;8.47;65.52;102836.87;1898308;75;21079;-82
2020/12/21 11:46:37;;;;;;;33.78;19.62;;;;;;;8.50;65.21;102834.22;1902448;75;21169;-82
2020/12/21 11:49:06;;;;;;;29.95;19.55;;;;;;;8.55;65.25;102831.09;1901219;74;21177;-82
2020/12/21 11:51:33;;;;;;;28.10;19.07;;;;;;;8.60;64.95;102827.95;1902010;75;21607;-83
2020/12/21 11:54:01;;;;;;;35.80;20.92;;;;;;;8.62;65.03;102827.45;1902037;74;21441;-81
2020/12/21 11:56:30;;;;;;;41.20;19.45;;;;;;;8.58;64.67;102830.17;1902192;74;21033;-82
2020/12/21 11:59:00;;;;;;;33.05;19.87;;;;;;;8.44;64.77;102821.42;1902592;74;21347;-81
2020/12/21 12:01:29;;;;;;;34.78;20.50;;;;;;;8.26;65.08;102823.95;1899005;74;20977;-80
2020/12/21 12:03:57;;;;;;;35.35;19.77;;;;;;;8.09;65.60;102819.58;1896463;75;20981;-81
2020/12/21 12:06:28;;;;;;;31.00;20.08;;;;;;;7.98;66.58;102822.38;1896667;75;20862;-80
2020/12/21 12:08:56;;;;;;;30.48;19.60;;;;;;;7.86;67.19;102818.77;1903813;74;21123;-80
2020/12/21 12:11:24;;;;;;;35.55;20.45;;;;;;;7.76;67.61;102822.41;1898694;75;21338;-82
2020/12/21 12:13:53;;;;;;;37.17;21.42;;;;;;;7.62;68.04;102819.70;1899288;74;20941;-85
2020/12/21 12:16:22;;;;;;;43.28;21.90;;;;;;;7.51;69.07;102825.06;1898884;74;21233;-81
2020/12/21 12:18:50;;;;;;;39.27;21.12;;;;;;;7.45;69.62;102820.02;1903366;74;21258;-80
2020/12/21 12:21:24;;;;;;;37.35;20.50;;;;;;;7.38;69.64;102821.86;1932702;74;21024;-81
2020/12/21 12:23:52;;;;;;;37.30;20.52;;;;;;;7.29;69.57;102834.95;1931171;74;21190;-81
2020/12/21 12:26:20;;;;;;;35.10;20.52;;;;;;;7.19;70.01;102828.67;1932664;74;21511;-82
2020/12/21 12:28:47;;;;;;;42.17;23.30;;;;;;;7.18;70.31;102830.86;1929286;74;21855;-80
2020/12/21 12:31:17;;;;;;;42.38;24.60;;;;;;;7.17;70.61;102830.44;1932213;74;21131;-81
2020/12/21 12:33:46;;;;;;;56.33;26.35;;;;;;;7.06;70.73;102833.19;1932317;74;21086;-80
2020/12/21 12:36:21;;;;;;;65.15;28.17;;;;;;;6.91;71.44;102835.60;1932339;74;21135;-80
2020/12/21 12:38:49;;;;;;;45.20;24.98;;;;;;;6.83;72.41;102837.88;1923200;74;21008;-79
2020/12/21 12:41:18;;;;;;;45.35;22.98;;;;;;;6.78;72.85;102834.09;1901247;74;20985;-80
2020/12/21 12:43:46;;;;;;;50.80;24.90;;;;;;;6.70;73.17;102833.34;1904382;74;20992;-81
2020/12/21 12:46:16;;;;;;;46.15;23.40;;;;;;;6.65;73.54;102837.73;1901901;75;21332;-80
2020/12/21 12:48:45;;;;;;;46.68;24.95;;;;;;;6.59;73.94;102842.98;1903253;74;21178;-80
2020/12/21 12:51:16;;;;;;;47.30;23.73;;;;;;;6.53;74.24;102840.93;1926782;73;20949;-81
2020/12/21 12:53:45;;;;;;;46.57;22.10;;;;;;;6.44;74.85;102841.92;1903995;74;20961;-80
2020/12/21 12:56:13;;;;;;;40.50;21.82;;;;;;;6.38;75.32;102841.55;1910138;74;20973;-79
2020/12/21 12:58:43;;;;;;;39.08;21.95;;;;;;;6.35;75.77;102839.02;1916474;74;20858;-80
2020/12/21 13:01:12;;;;;;;35.48;21.35;;;;;;;6.29;75.98;102837.81;1896017;75;21179;-81
2020/12/21 13:03:40;;;;;;;39.23;21.95;;;;;;;6.21;76.34;102840.95;1925222;74;20910;-80
2020/12/21 13:06:08;;;;;;;44.18;22.50;;;;;;;6.15;76.76;102838.89;1918917;74;21487;-81
2020/12/21 13:08:37;;;;;;;41.08;21.68;;;;;;;6.16;77.66;102840.14;1896039;75;20926;-79
2020/12/21 13:11:09;;;;;;;43.63;21.55;;;;;;;6.10;77.31;102841.51;1891734;75;21457;-79
2020/12/21 13:13:37;;;;;;;46.42;22.35;;;;;;;6.07;77.48;102841.98;1896195;74;22490;-78
2020/12/21 13:16:05;;;;;;;38.53;21.20;;;;;;;6.06;77.70;102852.72;1932180;74;21202;-79
2020/12/21 13:18:34;;;;;;;36.05;20.25;;;;;;;6.02;77.72;102847.21;1928416;74;21598;-78
2020/12/21 13:21:02;;;;;;;38.65;20.80;;;;;;;5.98;77.69;102845.53;1896280;75;21619;-79
2020/12/21 13:23:31;;;;;;;50.67;21.55;;;;;;;5.93;78.12;102849.91;1896302;75;21454;-79
2020/12/21 13:25:59;;;;;;;41.77;19.32;;;;;;;5.91;78.45;102850.34;1896406;75;22092;-79
2020/12/21 13:28:29;;;;;;;38.33;19.17;;;;;;;5.92;78.57;102848.19;1895925;75;21228;-79
2020/12/21 13:30:57;;;;;;;39.65;21.15;;;;;;;5.92;78.84;102855.06;1899488;74;21574;-79
2020/12/21 13:33:25;;;;;;;41.60;21.77;;;;;;;5.90;79.04;102858.96;1897647;74;21178;-82
2020/12/21 13:35:54;;;;;;;40.70;21.93;;;;;;;5.88;79.30;102850.81;1895369;74;21166;-80
2020/12/21 13:38:22;;;;;;;45.92;21.42;;;;;;;5.86;79.68;102850.84;1894618;75;21218;-81
2020/12/21 13:40:50;;;;;;;44.15;21.82;;;;;;;5.82;79.99;102852.56;1894747;75;21025;-80
2020/12/21 13:43:18;;;;;;;49.65;22.30;;;;;;;5.79;80.21;102854.32;1895481;75;20981;-82
2020/12/21 13:45:46;;;;;;;41.25;21.82;;;;;;;5.72;80.35;102852.24;1895067;75;21095;-81
2020/12/21 13:48:14;;;;;;;47.62;22.15;;;;;;;5.65;80.72;102853.60;1896041;74;20996;-81
2020/12/21 13:50:42;;;;;;;36.77;20.12;;;;;;;5.59;81.14;102851.95;1895873;75;21183;-80
2020/12/21 13:53:12;;;;;;;37.45;20.68;;;;;;;5.53;81.41;102855.88;1895584;75;20976;-81
2020/12/21 13:55:40;;;;;;;46.40;22.50;;;;;;;5.45;81.33;102850.41;1896309;75;21035;-81
2020/12/21 13:58:08;;;;;;;45.28;23.05;;;;;;;5.39;81.89;102855.19;1896130;75;21037;-81
2020/12/21 14:00:36;;;;;;;47.30;25.20;;;;;;;5.36;82.40;102853.08;1896352;74;20949;-82
2020/12/21 14:03:07;;;;;;;51.80;28.10;;;;;;;5.31;82.73;102856.97;1896284;75;21180;-82
2020/12/21 14:05:35;;;;;;;58.38;29.57;;;;;;;5.28;83.00;102859.14;1896564;74;21004;-81
2020/12/21 14:08:03;;;;;;;51.10;29.15;;;;;;;5.25;83.34;102855.30;1921785;74;21006;-80
2020/12/21 14:10:32;;;;;;;60.20;27.32;;;;;;;5.23;83.56;102863.92;1899104;74;20965;-80
2020/12/21 14:13:01;;;;;;;66.30;27.45;;;;;;;5.17;83.88;102863.97;1898248;75;21610;-81
2020/12/21 14:15:30;;;;;;;46.60;23.98;;;;;;;5.13;84.08;102861.86;1896154;75;22499;-81
2020/12/21 14:17:58;;;;;;;52.60;24.25;;;;;;;5.10;84.35;102864.45;1896333;75;21052;-80
2020/12/21 14:20:26;;;;;;;54.65;23.98;;;;;;;5.05;84.56;102865.34;1896493;75;20973;-82
2020/12/21 14:22:55;;;;;;;45.23;23.02;;;;;;;5.02;84.88;102868.80;1896221;75;20992;-80
2020/12/21 14:25:24;;;;;;;38.58;21.07;;;;;;;4.99;85.09;102866.25;1896120;75;21602;-81
2020/12/21 14:27:52;;;;;;;33.88;20.35;;;;;;;4.95;85.53;102867.13;1896144;75;21616;-80
2020/12/21 14:30:20;;;;;;;45.28;22.42;;;;;;;4.88;85.62;102870.64;1896505;75;21459;-80
2020/12/21 14:32:48;;;;;;;42.00;21.95;;;;;;;4.84;85.88;102868.95;1896266;75;21480;-80
2020/12/21 14:35:18;;;;;;;40.12;21.80;;;;;;;4.79;86.21;102875.81;1896203;75;21540;-81
2020/12/21 14:37:47;;;;;;;59.27;22.98;;;;;;;4.73;86.55;102878.44;1896216;75;21042;-81
2020/12/21 14:40:15;;;;;;;50.70;21.40;;;;;;;4.69;86.89;102880.17;1896109;75;22555;-81
2020/12/21 14:42:43;;;;;;;44.18;22.73;;;;;;;4.69;87.20;102878.06;1895991;75;21155;-81
2020/12/21 14:45:11;;;;;;;40.52;22.98;;;;;;;4.67;87.35;102867.77;1896261;75;21066;-82
2020/12/21 14:47:40;;;;;;;50.60;27.48;;;;;;;4.65;87.57;102865.65;1896212;75;20897;-81
2020/12/21 14:50:07;;;;;;;66.53;32.63;;;;;;;4.64;87.75;102872.93;1896307;75;21051;-81
2020/12/21 14:52:36;;;;;;;62.50;31.12;;;;;;;4.63;87.91;102874.21;1896322;75;21634;-80
2020/12/21 14:55:05;;;;;;;54.03;27.35;;;;;;;4.60;88.06;102873.80;1896212;75;21171;-81
2020/12/21 14:57:34;;;;;;;66.45;29.72;;;;;;;4.56;88.22;102867.42;1896361;75;21020;-81
2020/12/21 15:00:04;;;;;;;71.45;33.80;;;;;;;4.53;88.48;102872.12;1896073;75;21044;-81
2020/12/21 15:02:32;;;;;;;84.83;40.12;;;;;;;4.52;88.63;102870.87;1896388;75;21641;-81
2020/12/21 15:05:00;;;;;;;83.97;41.28;;;;;;;4.51;88.84;102864.01;1869162;75;22091;-81
2020/12/21 15:07:35;;;;;;;71.10;37.17;;;;;;;4.52;89.02;102864.02;1896088;75;20988;-81
2020/12/21 15:10:04;;;;;;;89.35;32.63;;;;;;;4.53;89.12;102862.30;1896519;75;21024;-81
2020/12/21 15:12:34;;;;;;;78.17;38.92;;;;;;;4.53;89.24;102866.16;1895777;75;21736;-81
2020/12/21 15:15:05;;;;;;;101.92;46.35;;;;;;;4.53;89.32;102861.02;1896209;75;21143;-81
2020/12/21 15:17:34;;;;;;;109.50;46.35;;;;;;;4.51;89.40;102862.30;1896459;75;21193;-82
2020/12/21 15:20:03;;;;;;;96.12;43.35;;;;;;;4.50;89.45;102865.72;1896141;75;20937;-81
2020/12/21 15:22:30;;;;;;;86.22;45.35;;;;;;;4.49;89.63;102873.03;1896176;75;20989;-81
2020/12/21 15:24:59;;;;;;;97.92;45.58;;;;;;;4.48;89.82;102858.45;1896311;75;21558;-81
2020/12/21 15:27:27;;;;;;;92.37;41.80;;;;;;;4.48;89.90;102867.45;1896173;75;21527;-81
2020/12/21 15:29:55;;;;;;;83.37;36.77;;;;;;;4.46;89.95;102875.62;1913346;74;21190;-81
2020/12/21 15:32:23;;;;;;;76.02;35.05;;;;;;;4.45;90.11;102867.91;1932330;74;21166;-81
2020/12/21 15:34:50;;;;;;;68.72;32.13;;;;;;;4.45;90.29;102871.75;1932625;74;20957;-81
2020/12/21 15:37:18;;;;;;;64.37;31.35;;;;;;;4.46;90.39;102867.05;1931827;74;21480;-81
2020/12/21 15:39:46;;;;;;;63.65;32.67;;;;;;;4.44;90.40;102870.89;1932000;74;21105;-80
2020/12/21 15:42:14;;;;;;;64.85;31.77;;;;;;;4.43;90.50;102870.92;1932472;74;21348;-80
2020/12/21 15:44:43;;;;;;;63.28;31.73;;;;;;;4.42;90.62;102874.34;1932542;74;21152;-80
2020/12/21 15:47:11;;;;;;;64.77;32.33;;;;;;;4.42;90.65;102870.48;1932706;74;21163;-81
2020/12/21 15:49:39;;;;;;;62.83;31.12;;;;;;;4.41;90.76;102865.77;1932440;74;21107;-81
2020/12/21 15:52:08;;;;;;;68.05;33.38;;;;;;;4.41;90.83;102863.20;1932888;74;21514;-81
2020/12/21 15:54:37;;;;;;;69.65;34.95;;;;;;;4.40;90.95;102863.23;1932440;74;21240;-81
2020/12/21 15:57:06;;;;;;;81.85;35.03;;;;;;;4.38;91.01;102867.08;1932337;74;21181;-81
2020/12/21 15:59:35;;;;;;;80.25;38.53;;;;;;;4.37;91.06;102865.81;1932744;74;20938;-80
2020/12/21 16:02:03;;;;;;;72.95;37.65;;;;;;;4.36;91.08;102866.67;1932344;74;21135;-81
2020/12/21 16:04:31;;;;;;;72.40;36.10;;;;;;;4.35;91.25;102872.66;1932659;74;21531;-81
2020/12/21 16:06:59;;;;;;;71.90;37.08;;;;;;;4.34;91.42;102867.95;1932716;74;22486;-81
2020/12/21 16:09:27;;;;;;;57.05;34.05;;;;;;;4.34;91.52;102865.84;1932784;74;21543;-80
2020/12/21 16:11:55;;;;;;;61.65;33.05;;;;;;;4.33;91.70;102861.55;1932723;74;21523;-82
2020/12/21 16:14:23;;;;;;;63.42;32.60;;;;;;;4.32;91.79;102863.26;1904246;74;21598;-81
2020/12/21 16:16:53;;;;;;;65.80;32.90;;;;;;;4.31;91.86;102863.28;1929022;74;21123;-81
2020/12/21 16:19:21;;;;;;;68.57;33.95;;;;;;;4.28;91.83;102861.13;1923560;74;21197;-81
2020/12/21 16:21:50;;;;;;;73.62;33.83;;;;;;;4.24;92.03;102854.29;1923623;74;21319;-81
2020/12/21 16:24:18;;;;;;;64.25;32.17;;;;;;;4.23;92.23;102859.45;1923539;74;21770;-82
2020/12/21 16:26:46;;;;;;;62.20;32.95;;;;;;;4.21;92.47;102858.16;1923582;74;21092;-81
2020/12/21 16:29:13;;;;;;;69.20;37.33;;;;;;;4.22;92.65;102861.59;1923515;74;21029;-82
2020/12/21 16:31:41;;;;;;;73.12;38.83;;;;;;;4.22;92.75;102859.88;1923618;74;21177;-81
2020/12/21 16:34:09;;;;;;;68.28;37.28;;;;;;;4.22;92.84;102859.88;1898239;74;21496;-82
2020/12/21 16:36:37;;;;;;;58.70;34.25;;;;;;;4.23;92.97;102860.31;1923664;74;20898;-82
2020/12/21 16:39:06;;;;;;;57.73;32.23;;;;;;;4.22;93.01;102863.73;1923561;74;21101;-82
2020/12/21 16:41:35;;;;;;;65.97;36.98;;;;;;;4.22;93.16;102859.02;1923620;74;21597;-81
2020/12/21 16:44:03;;;;;;;71.02;37.28;;;;;;;4.22;93.27;102856.45;1923645;74;21187;-82
2020/12/21 16:46:32;;;;;;;59.30;34.85;;;;;;;4.21;93.28;102858.62;1923603;74;20958;-82
2020/12/21 16:49:00;;;;;;;63.75;33.02;;;;;;;4.21;93.38;102857.34;1923416;74;21040;-81
2020/12/21 16:51:28;;;;;;;59.23;31.97;;;;;;;4.20;93.51;102856.48;1923579;74;21093;-81
2020/12/21 16:53:55;;;;;;;58.70;29.70;;;;;;;4.19;93.57;102845.77;1923712;74;21520;-81
